createdAt,value
2018-02-16T00:01:04.834Z,99.90
2018-02-16T00:03:30.985Z,99.90
2018-02-16T00:05:58.048Z,99.90
2018-02-16T00:08:24.439Z,99.80
2018-02-16T00:10:50.587Z,99.70
2018-02-16T00:13:16.813Z,99.80
2018-02-16T00:15:43.967Z,99.50
2018-02-16T00:18:10.107Z,99.50
2018-02-16T00:20:36.259Z,99.60
2018-02-16T00:23:02.407Z,99.50
2018-02-16T00:25:28.559Z,99.40
2018-02-16T00:27:55.467Z,99.40
2018-02-16T00:30:21.897Z,99.30
2018-02-16T00:32:48.085Z,99.30
2018-02-16T00:35:14.603Z,99.30
2018-02-16T00:37:40.990Z,99.20
2018-02-16T00:40:07.143Z,99.20
2018-02-16T00:42:33.647Z,99.20
2018-02-16T00:44:59.828Z,99.20
2018-02-16T00:47:26.003Z,99.20
2018-02-16T00:49:52.175Z,99.20
2018-02-16T00:52:18.378Z,99.10
2018-02-16T00:54:44.539Z,99.10
2018-02-16T00:57:10.692Z,99.20
2018-02-16T00:59:36.843Z,99.10
2018-02-16T01:02:03.275Z,99.10
2018-02-16T01:04:29.432Z,99.10
2018-02-16T01:06:55.936Z,99.10
2018-02-16T01:09:22.118Z,99.10
2018-02-16T01:11:48.281Z,99.10
2018-02-16T01:14:14.440Z,99.20
2018-02-16T01:16:40.955Z,99.10
2018-02-16T01:19:07.124Z,99.00
2018-02-16T01:21:34.036Z,99.10
2018-02-16T01:24:00.193Z,99.00
2018-02-16T01:26:26.327Z,98.90
2018-02-16T01:28:52.482Z,99.00
2018-02-16T01:31:18.649Z,98.90
2018-02-16T01:33:44.823Z,99.00
2018-02-16T01:36:10.980Z,98.90
2018-02-16T01:38:38.083Z,99.10
2018-02-16T01:41:04.275Z,98.90
2018-02-16T01:43:31.160Z,99.10
2018-02-16T01:45:57.607Z,98.90
2018-02-16T01:48:23.791Z,98.90
2018-02-16T01:50:50.695Z,98.80
2018-02-16T01:53:16.861Z,98.80
2018-02-16T01:55:43.016Z,98.80
2018-02-16T01:58:09.171Z,98.70
2018-02-16T02:00:35.355Z,98.80
2018-02-16T02:03:01.827Z,98.80
2018-02-16T02:05:28.715Z,98.80
2018-02-16T02:07:55.795Z,98.60
2018-02-16T02:10:22.103Z,98.60
2018-02-16T02:12:48.247Z,98.60
2018-02-16T02:15:14.396Z,98.70
2018-02-16T02:17:40.607Z,98.60
2018-02-16T02:20:06.751Z,98.60
2018-02-16T02:22:40.198Z,98.50
2018-02-16T02:25:07.392Z,98.40
2018-02-16T02:27:33.535Z,98.40
2018-02-16T02:29:59.700Z,98.40
2018-02-16T02:32:26.603Z,98.50
2018-02-16T02:34:52.785Z,98.40
2018-02-16T02:37:18.941Z,98.50
2018-02-16T02:39:45.160Z,98.40
2018-02-16T02:42:12.089Z,98.30
2018-02-16T02:44:38.223Z,98.30
2018-02-16T02:47:04.519Z,98.30
2018-02-16T02:49:30.671Z,98.30
2018-02-16T02:51:56.835Z,98.30
2018-02-16T02:54:22.971Z,98.20
2018-02-16T02:56:49.888Z,98.30
2018-02-16T02:59:16.046Z,98.30
2018-02-16T03:01:42.976Z,98.20
2018-02-16T03:04:09.135Z,98.10
2018-02-16T03:06:36.211Z,98.00
2018-02-16T06:34:09.261Z,97.90
2018-02-16T06:36:36.486Z,97.90
2018-02-16T06:39:02.635Z,97.80
2018-02-16T06:41:28.787Z,97.90
2018-02-16T06:43:56.025Z,97.90
2018-02-16T06:46:22.160Z,97.80
2018-02-16T06:48:48.323Z,97.80
2018-02-16T06:51:14.732Z,97.60
2018-02-16T06:53:40.939Z,97.50
2018-02-16T06:56:07.083Z,97.60
2018-02-16T06:58:33.252Z,97.60
2018-02-16T07:00:59.536Z,97.60
2018-02-16T07:03:25.709Z,97.40
2018-02-16T07:05:51.877Z,97.50
2018-02-16T07:08:18.065Z,97.50
2018-02-16T07:10:44.442Z,97.40
2018-02-16T07:13:11.364Z,97.10
2018-02-16T07:15:37.828Z,97.10
2018-02-16T07:18:04.768Z,96.90
2018-02-16T07:20:31.687Z,96.90
2018-02-16T07:22:57.838Z,96.90
2018-02-16T07:25:25.151Z,97.00
2018-02-16T07:27:51.299Z,97.00
2018-02-16T07:30:17.468Z,96.80
2018-02-16T07:32:43.677Z,97.10
2018-02-16T07:35:09.904Z,98.40
2018-02-16T07:37:36.059Z,97.10
2018-02-16T07:40:03.745Z,95.90
2018-02-16T07:42:30.667Z,95.60
2018-02-16T07:44:56.858Z,95.50
2018-02-16T07:47:23.026Z,94.60
2018-02-16T07:49:49.171Z,94.30
2018-02-16T07:52:15.323Z,94.30
2018-02-16T07:54:42.427Z,94.00
2018-02-16T07:57:08.635Z,93.90
2018-02-16T07:59:34.855Z,93.40
2018-02-16T08:02:01.237Z,92.80
2018-02-16T08:04:27.428Z,92.30
2018-02-16T08:06:53.595Z,92.40
2018-02-16T08:09:20.552Z,91.20
2018-02-16T08:11:47.471Z,90.30
2018-02-16T08:14:13.943Z,90.30
2018-02-16T08:16:40.304Z,88.70
2018-02-16T08:19:06.454Z,85.20
2018-02-16T08:21:32.691Z,83.90
2018-02-16T08:23:59.609Z,84.20
2018-02-16T08:26:26.641Z,84.80
2018-02-16T08:28:52.831Z,83.90
2018-02-16T08:31:19.120Z,85.30
2018-02-16T08:33:46.596Z,83.60
2018-02-16T08:36:13.687Z,82.10
2018-02-16T08:38:43.988Z,81.10
2018-02-16T08:41:11.228Z,79.60
2018-02-16T08:43:38.340Z,79.60
2018-02-16T08:46:04.587Z,80.50
2018-02-16T08:48:31.102Z,79.20
2018-02-16T08:50:58.073Z,77.90
2018-02-16T08:53:24.254Z,77.80
2018-02-16T08:55:50.459Z,76.40
2018-02-16T08:58:16.640Z,69.50
2018-02-16T09:00:43.560Z,61.60
2018-02-16T09:03:09.735Z,61.50
2018-02-16T09:05:35.906Z,61.20
2018-02-16T09:08:02.179Z,59.10
2018-02-16T09:10:28.343Z,58.10
2018-02-16T09:12:55.255Z,58.80
2018-02-16T09:15:21.433Z,58.80
2018-02-16T09:17:47.757Z,64.70
2018-02-16T09:20:14.648Z,59.40
2018-02-16T09:22:40.806Z,59.40
2018-02-16T09:25:07.231Z,59.00
2018-02-16T09:27:33.397Z,61.60
2018-02-16T09:29:59.539Z,59.30
2018-02-16T09:32:26.455Z,56.90
2018-02-16T09:34:54.073Z,56.60
2018-02-16T09:37:21.903Z,60.00
2018-02-16T09:39:49.267Z,57.70
2018-02-16T09:42:15.411Z,58.90
2018-02-16T09:44:43.035Z,64.20
2018-02-16T09:47:09.188Z,59.40
2018-02-16T09:49:35.330Z,58.50
2018-02-16T09:52:01.512Z,60.40
2018-02-16T09:54:28.433Z,61.70
2018-02-16T09:56:54.568Z,60.10
2018-02-16T09:59:21.673Z,62.70
2018-02-16T10:01:47.853Z,62.40
2018-02-16T10:04:14.017Z,60.10
2018-02-16T10:06:40.220Z,60.10
2018-02-16T10:09:07.122Z,59.00
2018-02-16T10:11:33.279Z,58.80
2018-02-16T10:13:59.439Z,63.30
2018-02-16T10:16:26.400Z,58.90
2018-02-16T10:18:52.920Z,58.80
2018-02-16T10:21:19.063Z,58.90
2018-02-16T10:23:45.224Z,59.70
2018-02-16T10:26:11.395Z,64.20
2018-02-16T10:28:37.554Z,63.80
2018-02-16T10:31:03.731Z,65.40
2018-02-16T10:33:29.931Z,64.40
2018-02-16T10:35:56.059Z,63.60
2018-02-16T10:38:22.951Z,66.60
2018-02-16T10:40:49.109Z,66.30
2018-02-16T10:43:15.251Z,66.50
2018-02-16T10:45:41.437Z,63.90
2018-02-16T10:48:07.607Z,64.80
2018-02-16T10:50:33.767Z,64.50
2018-02-16T10:52:59.971Z,66.20
2018-02-16T10:55:26.234Z,65.50
2018-02-16T10:57:53.153Z,67.30
2018-02-16T11:00:25.519Z,64.20
2018-02-16T11:02:57.847Z,67.20
2018-02-16T11:05:31.291Z,68.80
2018-02-16T11:07:57.443Z,72.70
2018-02-16T11:10:23.583Z,90.70
2018-02-16T11:12:51.279Z,72.70
2018-02-16T11:15:18.190Z,72.60
2018-02-16T11:17:44.381Z,72.50
2018-02-16T11:20:11.283Z,73.90
2018-02-16T11:22:37.448Z,73.90
2018-02-16T11:25:04.350Z,72.90
2018-02-16T11:27:30.515Z,72.90
2018-02-16T11:29:57.427Z,72.60
2018-02-16T11:32:23.597Z,72.60
2018-02-16T11:34:50.711Z,72.10
2018-02-16T11:37:16.862Z,71.50
2018-02-16T11:39:43.770Z,71.00
2018-02-16T11:42:10.709Z,72.00
2018-02-16T11:44:36.899Z,72.00
2018-02-16T11:47:03.053Z,70.90
2018-02-16T11:49:29.451Z,71.90
2018-02-16T11:51:55.634Z,71.50
2018-02-16T11:54:21.838Z,72.90
2018-02-16T11:56:48.263Z,73.70
2018-02-16T11:59:14.420Z,74.60
2018-02-16T12:01:40.567Z,76.30
2018-02-16T12:04:06.751Z,75.90
2018-02-16T12:06:32.903Z,76.20
2018-02-16T12:08:59.047Z,77.20
2018-02-16T12:11:25.227Z,76.20
2018-02-16T12:13:59.059Z,76.50
2018-02-16T12:16:25.703Z,76.50
2018-02-16T12:18:52.284Z,77.90
2018-02-16T12:21:18.467Z,78.70
2018-02-16T12:23:44.659Z,78.20
2018-02-16T12:26:11.612Z,76.60
2018-02-16T12:28:37.819Z,76.50
2018-02-16T12:31:04.127Z,75.10
2018-02-16T12:33:30.292Z,76.00
2018-02-16T12:38:25.839Z,75.10
2018-02-16T12:40:51.987Z,75.00
2018-02-16T12:43:18.886Z,74.50
2018-02-16T12:45:45.240Z,75.00
2018-02-16T12:48:11.382Z,74.50
2018-02-16T12:50:37.523Z,74.90
2018-02-16T12:53:10.654Z,75.50
2018-02-16T12:55:37.544Z,74.70
2018-02-16T12:58:03.692Z,74.70
2018-02-16T13:00:30.631Z,74.90
2018-02-16T13:02:56.827Z,74.50
2018-02-16T13:05:23.723Z,74.60
2018-02-16T13:07:50.855Z,75.70
2018-02-16T13:10:17.008Z,75.00
2018-02-16T13:12:44.672Z,76.10
2018-02-16T13:15:10.859Z,76.00
2018-02-16T13:17:37.756Z,76.60
2018-02-16T13:20:03.988Z,76.40
2018-02-16T13:22:30.383Z,77.10
2018-02-16T13:24:56.508Z,76.80
2018-02-16T13:27:23.387Z,77.30
2018-02-16T13:29:49.803Z,77.30
2018-02-16T13:32:16.692Z,77.00
2018-02-16T13:34:42.849Z,77.00
2018-02-16T13:37:09.355Z,77.10
2018-02-16T13:39:35.549Z,76.50
2018-02-16T13:42:02.440Z,77.30
2018-02-16T13:44:28.879Z,77.30
2018-02-16T13:46:55.040Z,76.60
2018-02-16T13:49:21.195Z,76.20
2018-02-16T13:51:47.356Z,75.50
2018-02-16T13:54:13.522Z,75.10
2018-02-16T13:56:39.682Z,74.90
2018-02-16T13:59:06.708Z,74.10
2018-02-16T14:01:32.848Z,74.00
2018-02-16T14:03:59.040Z,74.70
2018-02-16T14:06:25.923Z,75.00
2018-02-16T14:08:52.080Z,74.80
2018-02-16T14:11:18.981Z,75.60
2018-02-16T14:13:45.143Z,75.50
2018-02-16T14:16:11.319Z,76.30
2018-02-16T14:18:38.219Z,76.20
2018-02-16T14:21:04.557Z,76.60
2018-02-16T14:23:30.724Z,77.20
2018-02-16T14:25:56.876Z,78.00
2018-02-16T14:28:23.763Z,77.60
2018-02-16T14:30:50.101Z,77.40
2018-02-16T14:33:16.239Z,77.20
2018-02-16T14:35:42.454Z,77.70
2018-02-16T14:38:08.619Z,78.40
2018-02-16T14:40:34.810Z,78.30
2018-02-16T14:43:00.955Z,78.30
2018-02-16T14:45:27.139Z,77.90
2018-02-16T14:47:53.299Z,77.70
2018-02-16T14:50:19.454Z,76.90
2018-02-16T14:52:45.611Z,76.60
2018-02-16T14:55:11.755Z,76.40
2018-02-16T14:57:37.907Z,76.60
2018-02-16T15:00:04.092Z,77.20
2018-02-16T15:02:30.248Z,77.70
2018-02-16T15:04:56.400Z,77.80
2018-02-16T15:07:22.556Z,78.60
2018-02-16T15:09:49.450Z,79.20
2018-02-16T15:12:15.642Z,79.20
2018-02-16T15:14:42.543Z,80.50
2018-02-16T15:17:08.711Z,80.40
2018-02-16T15:19:35.594Z,83.90
2018-02-16T15:22:01.976Z,83.30
2018-02-16T15:24:28.127Z,83.00
2018-02-16T15:26:55.024Z,80.60
2018-02-16T15:29:21.183Z,80.50
2018-02-16T15:31:47.324Z,81.30
2018-02-16T15:34:13.487Z,79.40
2018-02-16T15:36:40.702Z,81.30
2018-02-16T15:39:06.860Z,81.30
2018-02-16T15:41:34.512Z,81.90
2018-02-16T15:44:00.673Z,81.80
2018-02-16T15:46:27.567Z,81.80
2018-02-16T15:48:53.799Z,82.00
2018-02-16T15:51:19.974Z,82.40
2018-02-16T15:53:46.153Z,83.10
2018-02-16T15:56:12.347Z,82.50
2018-02-16T15:58:39.264Z,82.80
2018-02-16T16:01:05.443Z,82.60
2018-02-16T16:03:32.243Z,82.90
2018-02-16T16:05:58.419Z,83.20
2018-02-16T16:08:25.325Z,84.10
2018-02-16T16:10:51.755Z,84.10
2018-02-16T16:13:17.930Z,85.20
2018-02-16T16:15:44.100Z,84.60
2018-02-16T16:18:11.291Z,85.00
2018-02-16T16:20:37.442Z,85.60
2018-02-16T16:23:03.607Z,85.10
2018-02-16T16:25:29.819Z,85.20
2018-02-16T16:27:56.331Z,85.80
2018-02-16T16:30:22.488Z,85.80
2018-02-16T16:32:49.611Z,85.90
2018-02-16T16:35:15.784Z,85.80
2018-02-16T16:37:41.924Z,86.10
2018-02-16T16:40:08.081Z,86.00
2018-02-16T16:42:34.984Z,86.70
2018-02-16T16:45:01.224Z,86.70
2018-02-16T16:47:28.152Z,87.10
2018-02-16T16:49:54.683Z,87.10
2018-02-16T16:52:20.843Z,87.20
2018-02-16T16:54:46.987Z,87.60
2018-02-16T16:57:13.175Z,87.70
2018-02-16T16:59:39.315Z,87.90
2018-02-16T17:02:05.492Z,88.10
2018-02-16T17:04:32.406Z,88.60
2018-02-16T17:06:58.548Z,88.60
2018-02-16T17:09:24.736Z,88.50
2018-02-16T17:11:50.912Z,88.50
2018-02-16T17:14:17.079Z,88.70
2018-02-16T17:16:43.235Z,88.80
2018-02-16T17:19:10.315Z,88.90
2018-02-16T17:21:36.509Z,88.90
2018-02-16T17:24:03.399Z,89.20
2018-02-16T17:26:29.572Z,89.10
2018-02-16T17:28:57.203Z,89.20
2018-02-16T17:31:23.347Z,89.20
2018-02-16T17:33:49.532Z,89.50
2018-02-16T17:36:16.421Z,89.60
2018-02-16T17:38:42.619Z,89.60
2018-02-16T17:41:08.792Z,89.60
2018-02-16T17:43:34.935Z,89.70
2018-02-16T17:46:01.406Z,89.70
2018-02-16T17:48:28.515Z,90.10
2018-02-16T17:50:54.687Z,90.10
2018-02-16T17:53:27.930Z,90.00
2018-02-16T17:55:54.888Z,90.10
2018-02-16T17:58:21.043Z,90.10
2018-02-16T18:00:47.451Z,90.10
2018-02-16T18:03:13.607Z,90.10
2018-02-16T18:05:39.762Z,90.10
2018-02-16T18:08:05.935Z,89.70
2018-02-16T18:10:32.828Z,89.70
2018-02-16T18:12:58.973Z,89.60
2018-02-16T18:15:25.291Z,89.90
2018-02-16T18:17:51.442Z,90.00
2018-02-16T18:20:17.596Z,90.10
2018-02-16T18:22:43.739Z,90.40
2018-02-16T18:25:10.632Z,88.30
2018-02-16T18:27:36.967Z,88.50
2018-02-16T18:30:03.209Z,88.50
2018-02-16T18:32:30.081Z,88.50
2018-02-16T18:34:56.235Z,88.30
2018-02-16T18:37:23.131Z,88.60
2018-02-16T18:39:49.272Z,88.50
2018-02-16T18:42:15.425Z,88.30
2018-02-16T18:44:41.604Z,87.70
2018-02-16T18:47:07.753Z,87.80
2018-02-16T18:49:33.915Z,88.20
2018-02-16T18:52:00.892Z,88.90
2018-02-16T18:54:27.791Z,88.30
2018-02-16T18:56:54.351Z,88.30
2018-02-16T18:59:20.527Z,88.50
2018-02-16T19:01:47.748Z,88.90
2018-02-16T19:04:14.667Z,88.40
2018-02-16T19:06:40.976Z,88.80
2018-02-16T19:09:08.379Z,89.30
2018-02-16T19:11:34.523Z,89.30
2018-02-16T19:14:00.664Z,89.60
2018-02-16T19:16:27.207Z,89.30
2018-02-16T19:18:53.363Z,89.50
2018-02-16T19:21:19.517Z,89.60
2018-02-16T19:23:45.743Z,90.00
2018-02-16T19:26:12.628Z,89.50
2018-02-16T19:28:39.579Z,89.90
2018-02-16T19:31:06.156Z,89.80
2018-02-16T19:33:32.371Z,90.00
2018-02-16T19:35:58.522Z,90.10
2018-02-16T19:38:24.823Z,90.20
2018-02-16T19:40:50.963Z,90.20
2018-02-16T19:43:18.051Z,90.20
2018-02-16T19:45:44.796Z,90.20
2018-02-16T19:48:10.996Z,90.10
2018-02-16T19:50:37.279Z,90.00
2018-02-16T19:53:04.184Z,90.30
2018-02-16T19:55:30.347Z,90.30
2018-02-16T19:57:56.543Z,90.40
2018-02-16T20:00:22.696Z,90.50
2018-02-16T20:02:48.856Z,90.30
2018-02-16T20:05:14.993Z,91.00
2018-02-16T20:07:41.216Z,90.30
2018-02-16T20:10:07.364Z,90.00
2018-02-16T20:12:34.380Z,89.70
2018-02-16T20:15:00.802Z,90.10
2018-02-16T20:17:26.939Z,88.90
2018-02-16T20:19:53.881Z,88.70
2018-02-16T20:22:20.331Z,88.60
2018-02-16T20:24:46.479Z,88.70
2018-02-16T20:27:12.631Z,88.40
2018-02-16T20:29:38.808Z,88.30
2018-02-16T20:32:05.018Z,88.90
2018-02-16T20:34:31.919Z,89.40
2018-02-16T20:36:58.097Z,89.30
2018-02-16T20:39:24.988Z,89.80
2018-02-16T20:41:51.151Z,89.70
2018-02-16T20:44:17.564Z,90.00
2018-02-16T20:46:43.727Z,90.00
2018-02-16T20:49:09.904Z,90.10
2018-02-16T20:51:36.467Z,90.10
2018-02-16T20:54:02.634Z,90.30
2018-02-16T20:56:28.804Z,90.40
2018-02-16T20:58:55.712Z,90.40
2018-02-16T21:01:21.868Z,90.40
2018-02-16T21:03:48.958Z,90.60
2018-02-16T21:06:15.231Z,90.60
2018-02-16T21:08:42.171Z,90.60
2018-02-16T21:11:08.353Z,90.60
2018-02-16T21:13:35.439Z,90.80
2018-02-16T21:16:01.599Z,90.70
2018-02-16T21:18:27.751Z,90.80
2018-02-16T21:20:55.416Z,90.80
2018-02-16T21:23:22.339Z,90.70
2018-02-16T21:25:48.621Z,90.70
2018-02-16T21:28:14.867Z,90.70
2018-02-16T21:30:41.065Z,90.80
2018-02-16T21:33:10.272Z,90.90
2018-02-16T21:35:38.759Z,91.00
2018-02-16T21:38:05.208Z,91.00
2018-02-16T21:40:31.371Z,91.00
2018-02-16T21:42:57.552Z,91.10
2018-02-16T21:45:25.203Z,91.50
2018-02-16T21:47:51.737Z,91.50
2018-02-16T21:50:17.919Z,91.50
2018-02-16T21:52:44.434Z,91.40
2018-02-16T21:55:10.872Z,91.60
2018-02-16T21:57:37.039Z,91.60
2018-02-16T22:00:03.997Z,91.70
2018-02-16T22:02:30.164Z,91.70
2018-02-16T22:04:56.315Z,91.70
2018-02-16T22:07:22.472Z,91.70
2018-02-16T22:09:48.933Z,91.80
2018-02-16T22:12:15.978Z,92.10
2018-02-16T22:14:42.212Z,92.10
2018-02-16T22:17:09.106Z,92.20
2018-02-16T22:19:35.263Z,92.20
2018-02-16T22:22:01.427Z,92.20
2018-02-16T22:24:27.590Z,92.10
2018-02-16T22:26:53.746Z,92.00
2018-02-16T22:29:19.948Z,92.20
2018-02-16T22:31:46.165Z,92.10
2018-02-16T22:34:13.102Z,92.00
2018-02-16T22:36:39.245Z,92.00
2018-02-16T22:39:06.146Z,92.00
2018-02-16T22:41:32.322Z,92.00
2018-02-16T22:43:58.484Z,92.20
2018-02-16T22:46:24.662Z,92.20
2018-02-16T22:48:50.853Z,92.10
2018-02-16T22:51:17.015Z,92.10
2018-02-16T22:53:43.188Z,92.00
2018-02-16T22:56:09.684Z,92.10
2018-02-16T22:58:35.826Z,92.20
2018-02-16T23:01:01.991Z,92.30
2018-02-16T23:03:28.175Z,92.20
2018-02-16T23:05:54.332Z,92.50
2018-02-16T23:08:20.519Z,92.50
2018-02-16T23:10:47.425Z,92.40
2018-02-16T23:13:13.604Z,92.40
2018-02-16T23:15:39.751Z,92.20
2018-02-16T23:18:05.946Z,92.20
2018-02-16T23:20:32.892Z,92.40
2018-02-16T23:22:59.351Z,92.10
2018-02-16T23:25:25.539Z,92.10
2018-02-16T23:27:51.690Z,92.30
2018-02-16T23:30:19.319Z,92.50
2018-02-16T23:32:45.510Z,92.80
2018-02-16T23:35:12.412Z,92.50
2018-02-16T23:37:38.551Z,92.50
2018-02-16T23:40:04.691Z,92.40
2018-02-16T23:42:30.812Z,92.70
2018-02-16T23:44:57.749Z,92.60
2018-02-16T23:47:24.664Z,92.80
2018-02-16T23:49:50.823Z,92.70
2018-02-16T23:52:17.120Z,92.80
2018-02-16T23:54:43.312Z,92.80
2018-02-16T23:57:10.220Z,93.00
2018-02-16T23:59:36.752Z,93.00
